sensor_id;sensor_type;location;lat;lon;timestamp;temperature;humidity
11188;DHT22;5650;52.700;7.306;2022-08-30T00:01:26;17.20;99.90
11188;DHT22;5650;52.700;7.306;2022-08-30T00:03:53;17.20;99.90
11188;DHT22;5650;52.700;7.306;2022-08-30T00:06:21;17.10;99.90
11188;DHT22;5650;52.700;7.306;2022-08-30T00:08:49;17.10;99.90
11188;DHT22;5650;52.700;7.306;2022-08-30T00:11:19;17.10;99.90
11188;DHT22;5650;52.700;7.306;2022-08-30T00:13:51;17.10;99.90
11188;DHT22;5650;52.700;7.306;2022-08-30T00:16:32;17.00;99.90
11188;DHT22;5650;52.700;7.306;2022-08-30T00:18:59;17.00;99.90
11188;DHT22;5650;52.700;7.306;2022-08-30T00:21:32;16.90;99.90
11188;DHT22;5650;52.700;7.306;2022-08-30T00:23:59;16.90;99.90
11188;DHT22;5650;52.700;7.306;2022-08-30T00:26:35;16.90;99.90
11188;DHT22;5650;52.700;7.306;2022-08-30T00:29:02;16.80;99.90
11188;DHT22;5650;52.700;7.306;2022-08-30T00:31:34;16.80;99.90
11188;DHT22;5650;52.700;7.306;2022-08-30T00:34:06;16.80;99.90
11188;DHT22;5650;52.700;7.306;2022-08-30T00:36:39;16.80;99.90
11188;DHT22;5650;52.700;7.306;2022-08-30T00:39:07;16.70;99.90
11188;DHT22;5650;52.700;7.306;2022-08-30T00:41:40;16.70;99.90
11188;DHT22;5650;52.700;7.306;2022-08-30T00:44:07;16.70;99.90
11188;DHT22;5650;52.700;7.306;2022-08-30T00:46:36;16.70;99.90
11188;DHT22;5650;52.700;7.306;2022-08-30T00:49:06;16.70;99.90
11188;DHT22;5650;52.700;7.306;2022-08-30T00:51:34;16.70;99.90
11188;DHT22;5650;52.700;7.306;2022-08-30T00:54:05;16.70;99.90
11188;DHT22;5650;52.700;7.306;2022-08-30T00:56:35;16.60;99.90
11188;DHT22;5650;52.700;7.306;2022-08-30T00:59:07;16.70;99.90
11188;DHT22;5650;52.700;7.306;2022-08-30T01:01:36;16.70;99.90
11188;DHT22;5650;52.700;7.306;2022-08-30T01:04:04;16.70;99.90
11188;DHT22;5650;52.700;7.306;2022-08-30T01:06:36;16.70;99.90
11188;DHT22;5650;52.700;7.306;2022-08-30T01:09:05;16.60;99.90
11188;DHT22;5650;52.700;7.306;2022-08-30T01:11:35;16.60;99.90
11188;DHT22;5650;52.700;7.306;2022-08-30T01:14:04;16.60;99.90
11188;DHT22;5650;52.700;7.306;2022-08-30T01:16:37;16.60;99.90
11188;DHT22;5650;52.700;7.306;2022-08-30T01:19:12;16.50;99.90
11188;DHT22;5650;52.700;7.306;2022-08-30T01:21:47;16.50;99.90
11188;DHT22;5650;52.700;7.306;2022-08-30T01:24:16;16.40;99.90
11188;DHT22;5650;52.700;7.306;2022-08-30T01:26:43;16.40;99.90
11188;DHT22;5650;52.700;7.306;2022-08-30T01:29:14;16.40;99.90
11188;DHT22;5650;52.700;7.306;2022-08-30T01:31:43;16.30;99.90
11188;DHT22;5650;52.700;7.306;2022-08-30T01:34:14;16.30;99.90
11188;DHT22;5650;52.700;7.306;2022-08-30T01:36:43;16.30;99.90
11188;DHT22;5650;52.700;7.306;2022-08-30T01:39:13;16.20;99.90
11188;DHT22;5650;52.700;7.306;2022-08-30T01:41:43;16.20;99.90
11188;DHT22;5650;52.700;7.306;2022-08-30T01:44:11;16.20;99.90
11188;DHT22;5650;52.700;7.306;2022-08-30T01:46:44;16.10;99.90
11188;DHT22;5650;52.700;7.306;2022-08-30T01:49:14;16.10;99.90
11188;DHT22;5650;52.700;7.306;2022-08-30T01:51:43;16.10;99.90
11188;DHT22;5650;52.700;7.306;2022-08-30T01:54:10;16.00;99.90
11188;DHT22;5650;52.700;7.306;2022-08-30T01:56:37;16.00;99.90
11188;DHT22;5650;52.700;7.306;2022-08-30T01:59:06;16.00;99.90
11188;DHT22;5650;52.700;7.306;2022-08-30T02:01:35;16.00;99.90
11188;DHT22;5650;52.700;7.306;2022-08-30T02:04:08;16.00;99.90
11188;DHT22;5650;52.700;7.306;2022-08-30T02:06:37;16.00;99.90
11188;DHT22;5650;52.700;7.306;2022-08-30T02:09:04;16.00;99.90
11188;DHT22;5650;52.700;7.306;2022-08-30T02:11:31;15.90;99.90
11188;DHT22;5650;52.700;7.306;2022-08-30T02:13:59;15.90;99.90
11188;DHT22;5650;52.700;7.306;2022-08-30T02:16:27;15.90;99.90
11188;DHT22;5650;52.700;7.306;2022-08-30T02:18:54;15.90;99.90
11188;DHT22;5650;52.700;7.306;2022-08-30T02:21:25;15.80;99.90
11188;DHT22;5650;52.700;7.306;2022-08-30T02:23:53;15.80;99.90
11188;DHT22;5650;52.700;7.306;2022-08-30T02:26:23;15.80;99.90
11188;DHT22;5650;52.700;7.306;2022-08-30T02:28:51;15.80;99.90
11188;DHT22;5650;52.700;7.306;2022-08-30T02:31:20;15.70;99.90
11188;DHT22;5650;52.700;7.306;2022-08-30T02:33:49;15.70;99.90
11188;DHT22;5650;52.700;7.306;2022-08-30T02:36:20;15.70;99.90
11188;DHT22;5650;52.700;7.306;2022-08-30T02:38:54;15.60;99.90
11188;DHT22;5650;52.700;7.306;2022-08-30T02:41:21;15.60;99.90
11188;DHT22;5650;52.700;7.306;2022-08-30T02:43:49;15.60;99.90
11188;DHT22;5650;52.700;7.306;2022-08-30T02:46:22;15.50;99.90
11188;DHT22;5650;52.700;7.306;2022-08-30T02:48:50;15.50;99.90
11188;DHT22;5650;52.700;7.306;2022-08-30T02:51:23;15.50;99.90
11188;DHT22;5650;52.700;7.306;2022-08-30T02:53:56;15.40;99.90
11188;DHT22;5650;52.700;7.306;2022-08-30T02:56:23;15.40;99.90
11188;DHT22;5650;52.700;7.306;2022-08-30T02:58:50;15.40;99.90
11188;DHT22;5650;52.700;7.306;2022-08-30T03:01:17;15.30;99.90
11188;DHT22;5650;52.700;7.306;2022-08-30T03:03:44;15.30;99.90
11188;DHT22;5650;52.700;7.306;2022-08-30T03:06:13;15.30;99.90
11188;DHT22;5650;52.700;7.306;2022-08-30T03:08:41;15.30;99.90
11188;DHT22;5650;52.700;7.306;2022-08-30T03:11:08;15.20;99.90
11188;DHT22;5650;52.700;7.306;2022-08-30T03:13:35;15.20;99.90
11188;DHT22;5650;52.700;7.306;2022-08-30T03:16:03;15.10;99.90
11188;DHT22;5650;52.700;7.306;2022-08-30T03:18:30;15.10;99.90
11188;DHT22;5650;52.700;7.306;2022-08-30T03:20:58;15.00;99.90
11188;DHT22;5650;52.700;7.306;2022-08-30T03:23:29;15.00;99.90
11188;DHT22;5650;52.700;7.306;2022-08-30T03:26:07;15.00;99.90
11188;DHT22;5650;52.700;7.306;2022-08-30T03:28:35;14.90;99.90
11188;DHT22;5650;52.700;7.306;2022-08-30T03:31:05;14.90;99.90
11188;DHT22;5650;52.700;7.306;2022-08-30T03:33:36;14.90;99.90
11188;DHT22;5650;52.700;7.306;2022-08-30T03:36:10;14.80;99.90
11188;DHT22;5650;52.700;7.306;2022-08-30T03:38:39;14.80;99.90
11188;DHT22;5650;52.700;7.306;2022-08-30T03:41:06;14.70;99.90
11188;DHT22;5650;52.700;7.306;2022-08-30T03:43:33;14.70;99.90
11188;DHT22;5650;52.700;7.306;2022-08-30T03:46:00;14.60;99.90
11188;DHT22;5650;52.700;7.306;2022-08-30T03:48:36;14.60;99.90
11188;DHT22;5650;52.700;7.306;2022-08-30T03:51:03;14.50;99.90
11188;DHT22;5650;52.700;7.306;2022-08-30T03:53:33;14.50;99.90
11188;DHT22;5650;52.700;7.306;2022-08-30T03:56:14;14.40;99.90
11188;DHT22;5650;52.700;7.306;2022-08-30T03:58:41;14.40;99.90
11188;DHT22;5650;52.700;7.306;2022-08-30T04:01:08;14.40;99.90
11188;DHT22;5650;52.700;7.306;2022-08-30T04:03:35;14.30;99.90
11188;DHT22;5650;52.700;7.306;2022-08-30T04:06:08;14.30;99.90
11188;DHT22;5650;52.700;7.306;2022-08-30T04:08:38;14.20;99.90
11188;DHT22;5650;52.700;7.306;2022-08-30T04:11:05;14.20;99.90
11188;DHT22;5650;52.700;7.306;2022-08-30T04:13:33;14.20;99.90
11188;DHT22;5650;52.700;7.306;2022-08-30T04:16:01;14.20;99.90
11188;DHT22;5650;52.700;7.306;2022-08-30T04:18:28;14.20;99.90
11188;DHT22;5650;52.700;7.306;2022-08-30T04:20:55;14.20;99.90
11188;DHT22;5650;52.700;7.306;2022-08-30T04:23:22;14.20;99.90
11188;DHT22;5650;52.700;7.306;2022-08-30T04:25:49;14.10;99.90
11188;DHT22;5650;52.700;7.306;2022-08-30T04:28:17;14.10;99.90
11188;DHT22;5650;52.700;7.306;2022-08-30T04:30:45;14.00;99.90
11188;DHT22;5650;52.700;7.306;2022-08-30T04:33:15;14.00;99.90
11188;DHT22;5650;52.700;7.306;2022-08-30T04:35:43;13.90;99.90
11188;DHT22;5650;52.700;7.306;2022-08-30T04:38:11;13.90;99.90
11188;DHT22;5650;52.700;7.306;2022-08-30T04:40:40;13.90;99.90
11188;DHT22;5650;52.700;7.306;2022-08-30T04:43:10;13.90;99.90
11188;DHT22;5650;52.700;7.306;2022-08-30T04:45:37;13.90;99.90
11188;DHT22;5650;52.700;7.306;2022-08-30T04:48:07;13.90;99.90
11188;DHT22;5650;52.700;7.306;2022-08-30T04:50:34;13.80;99.90
11188;DHT22;5650;52.700;7.306;2022-08-30T04:53:02;13.80;99.90
11188;DHT22;5650;52.700;7.306;2022-08-30T04:55:30;13.80;99.90
11188;DHT22;5650;52.700;7.306;2022-08-30T04:57:57;13.90;99.90
11188;DHT22;5650;52.700;7.306;2022-08-30T05:00:25;13.90;99.90
11188;DHT22;5650;52.700;7.306;2022-08-30T05:02:52;13.90;99.90
11188;DHT22;5650;52.700;7.306;2022-08-30T05:05:21;13.90;99.90
11188;DHT22;5650;52.700;7.306;2022-08-30T05:08:12;14.00;99.90
11188;DHT22;5650;52.700;7.306;2022-08-30T05:10:41;14.00;99.90
11188;DHT22;5650;52.700;7.306;2022-08-30T05:13:09;14.00;99.90
11188;DHT22;5650;52.700;7.306;2022-08-30T05:15:37;14.00;99.90
11188;DHT22;5650;52.700;7.306;2022-08-30T05:18:05;14.00;99.90
11188;DHT22;5650;52.700;7.306;2022-08-30T05:20:35;14.00;99.90
11188;DHT22;5650;52.700;7.306;2022-08-30T05:23:03;13.90;99.90
11188;DHT22;5650;52.700;7.306;2022-08-30T05:25:32;13.90;99.90
11188;DHT22;5650;52.700;7.306;2022-08-30T05:28:05;13.90;99.90
11188;DHT22;5650;52.700;7.306;2022-08-30T05:30:35;13.90;99.90
11188;DHT22;5650;52.700;7.306;2022-08-30T05:33:05;13.90;99.90
11188;DHT22;5650;52.700;7.306;2022-08-30T05:35:34;14.00;99.90
11188;DHT22;5650;52.700;7.306;2022-08-30T05:38:04;14.00;99.90
11188;DHT22;5650;52.700;7.306;2022-08-30T05:40:31;14.20;99.90
11188;DHT22;5650;52.700;7.306;2022-08-30T05:43:01;14.90;99.90
11188;DHT22;5650;52.700;7.306;2022-08-30T05:45:34;15.80;99.90
11188;DHT22;5650;52.700;7.306;2022-08-30T05:48:08;16.60;99.90
11188;DHT22;5650;52.700;7.306;2022-08-30T05:50:36;17.40;99.90
11188;DHT22;5650;52.700;7.306;2022-08-30T05:53:03;18.10;99.90
11188;DHT22;5650;52.700;7.306;2022-08-30T05:55:30;18.70;99.90
11188;DHT22;5650;52.700;7.306;2022-08-30T05:58:01;19.20;99.90
11188;DHT22;5650;52.700;7.306;2022-08-30T06:00:31;19.60;99.90
11188;DHT22;5650;52.700;7.306;2022-08-30T06:03:01;20.00;99.90
11188;DHT22;5650;52.700;7.306;2022-08-30T06:05:28;20.30;99.90
11188;DHT22;5650;52.700;7.306;2022-08-30T06:07:59;20.70;99.90
11188;DHT22;5650;52.700;7.306;2022-08-30T06:10:29;21.10;99.90
11188;DHT22;5650;52.700;7.306;2022-08-30T06:12:56;21.30;99.90
11188;DHT22;5650;52.700;7.306;2022-08-30T06:15:26;21.30;99.90
11188;DHT22;5650;52.700;7.306;2022-08-30T06:17:53;21.20;99.90
11188;DHT22;5650;52.700;7.306;2022-08-30T06:20:21;21.20;99.90
11188;DHT22;5650;52.700;7.306;2022-08-30T06:22:48;21.20;99.90
11188;DHT22;5650;52.700;7.306;2022-08-30T06:25:19;21.20;99.90
11188;DHT22;5650;52.700;7.306;2022-08-30T06:27:47;21.40;99.90
11188;DHT22;5650;52.700;7.306;2022-08-30T06:30:14;21.70;99.90
11188;DHT22;5650;52.700;7.306;2022-08-30T06:32:44;21.90;99.90
11188;DHT22;5650;52.700;7.306;2022-08-30T06:35:14;22.00;99.90
11188;DHT22;5650;52.700;7.306;2022-08-30T06:37:42;22.20;99.90
11188;DHT22;5650;52.700;7.306;2022-08-30T06:40:10;22.30;99.90
11188;DHT22;5650;52.700;7.306;2022-08-30T06:42:39;22.00;99.90
11188;DHT22;5650;52.700;7.306;2022-08-30T06:45:09;22.10;99.90
11188;DHT22;5650;52.700;7.306;2022-08-30T06:47:36;22.10;99.90
11188;DHT22;5650;52.700;7.306;2022-08-30T06:50:04;22.10;99.90
11188;DHT22;5650;52.700;7.306;2022-08-30T06:52:31;22.00;99.90
11188;DHT22;5650;52.700;7.306;2022-08-30T06:54:58;22.10;99.90
11188;DHT22;5650;52.700;7.306;2022-08-30T06:57:26;22.20;99.90
11188;DHT22;5650;52.700;7.306;2022-08-30T06:59:56;22.40;99.90
11188;DHT22;5650;52.700;7.306;2022-08-30T07:02:26;22.40;99.90
11188;DHT22;5650;52.700;7.306;2022-08-30T07:04:53;22.70;99.90
11188;DHT22;5650;52.700;7.306;2022-08-30T07:07:23;22.90;99.70
11188;DHT22;5650;52.700;7.306;2022-08-30T07:09:50;23.10;98.90
11188;DHT22;5650;52.700;7.306;2022-08-30T07:12:18;23.20;98.80
11188;DHT22;5650;52.700;7.306;2022-08-30T07:14:46;23.30;98.20
11188;DHT22;5650;52.700;7.306;2022-08-30T07:17:15;23.40;97.20
11188;DHT22;5650;52.700;7.306;2022-08-30T07:20:03;23.30;96.30
11188;DHT22;5650;52.700;7.306;2022-08-30T07:22:31;22.80;96.70
11188;DHT22;5650;52.700;7.306;2022-08-30T07:24:59;22.70;97.60
11188;DHT22;5650;52.700;7.306;2022-08-30T07:27:26;22.60;97.00
11188;DHT22;5650;52.700;7.306;2022-08-30T07:30:02;22.40;97.20
11188;DHT22;5650;52.700;7.306;2022-08-30T07:32:34;22.20;97.90
11188;DHT22;5650;52.700;7.306;2022-08-30T07:35:06;22.10;97.90
11188;DHT22;5650;52.700;7.306;2022-08-30T07:37:33;22.00;98.10
11188;DHT22;5650;52.700;7.306;2022-08-30T07:40:00;22.20;98.00
11188;DHT22;5650;52.700;7.306;2022-08-30T07:42:28;22.10;97.60
11188;DHT22;5650;52.700;7.306;2022-08-30T07:44:58;22.10;98.20
11188;DHT22;5650;52.700;7.306;2022-08-30T07:47:28;22.10;97.60
11188;DHT22;5650;52.700;7.306;2022-08-30T07:49:58;22.10;97.50
11188;DHT22;5650;52.700;7.306;2022-08-30T07:52:25;22.20;97.10
11188;DHT22;5650;52.700;7.306;2022-08-30T07:54:54;22.10;97.10
11188;DHT22;5650;52.700;7.306;2022-08-30T07:57:21;22.00;96.70
11188;DHT22;5650;52.700;7.306;2022-08-30T07:59:49;21.80;96.80
11188;DHT22;5650;52.700;7.306;2022-08-30T08:02:17;21.70;97.20
11188;DHT22;5650;52.700;7.306;2022-08-30T08:04:44;21.40;97.30
11188;DHT22;5650;52.700;7.306;2022-08-30T08:07:13;21.30;97.90
11188;DHT22;5650;52.700;7.306;2022-08-30T08:09:41;21.30;97.60
11188;DHT22;5650;52.700;7.306;2022-08-30T08:12:08;21.30;97.50
11188;DHT22;5650;52.700;7.306;2022-08-30T08:14:36;21.20;97.00
11188;DHT22;5650;52.700;7.306;2022-08-30T08:17:04;21.20;97.00
11188;DHT22;5650;52.700;7.306;2022-08-30T08:19:31;21.10;97.20
11188;DHT22;5650;52.700;7.306;2022-08-30T08:21:58;21.00;97.20
11188;DHT22;5650;52.700;7.306;2022-08-30T08:24:27;21.00;96.90
11188;DHT22;5650;52.700;7.306;2022-08-30T08:26:57;21.00;96.60
11188;DHT22;5650;52.700;7.306;2022-08-30T08:29:27;21.10;96.30
11188;DHT22;5650;52.700;7.306;2022-08-30T08:31:54;21.20;95.70
11188;DHT22;5650;52.700;7.306;2022-08-30T08:34:22;21.50;95.80
11188;DHT22;5650;52.700;7.306;2022-08-30T08:36:49;21.70;94.70
11188;DHT22;5650;52.700;7.306;2022-08-30T08:39:17;21.90;94.30
11188;DHT22;5650;52.700;7.306;2022-08-30T08:42:02;22.20;94.00
11188;DHT22;5650;52.700;7.306;2022-08-30T08:44:48;22.40;93.60
11188;DHT22;5650;52.700;7.306;2022-08-30T08:47:20;22.50;92.60
11188;DHT22;5650;52.700;7.306;2022-08-30T08:49:55;22.70;92.50
11188;DHT22;5650;52.700;7.306;2022-08-30T08:52:28;22.90;92.20
11188;DHT22;5650;52.700;7.306;2022-08-30T08:55:13;23.00;91.60
11188;DHT22;5650;52.700;7.306;2022-08-30T08:57:46;22.60;91.50
11188;DHT22;5650;52.700;7.306;2022-08-30T09:00:16;22.20;92.40
11188;DHT22;5650;52.700;7.306;2022-08-30T09:02:46;21.80;93.60
11188;DHT22;5650;52.700;7.306;2022-08-30T09:05:17;21.60;93.80
11188;DHT22;5650;52.700;7.306;2022-08-30T09:07:48;21.40;94.10
11188;DHT22;5650;52.700;7.306;2022-08-30T09:10:16;21.20;94.70
11188;DHT22;5650;52.700;7.306;2022-08-30T09:12:43;21.10;94.80
11188;DHT22;5650;52.700;7.306;2022-08-30T09:15:17;20.90;95.20
11188;DHT22;5650;52.700;7.306;2022-08-30T09:17:56;20.90;95.80
11188;DHT22;5650;52.700;7.306;2022-08-30T09:20:32;20.90;96.20
11188;DHT22;5650;52.700;7.306;2022-08-30T09:23:28;20.80;95.90
11188;DHT22;5650;52.700;7.306;2022-08-30T09:25:58;20.80;96.20
11188;DHT22;5650;52.700;7.306;2022-08-30T09:28:29;20.70;96.30
11188;DHT22;5650;52.700;7.306;2022-08-30T09:31:03;20.70;96.50
11188;DHT22;5650;52.700;7.306;2022-08-30T09:33:34;20.70;96.90
11188;DHT22;5650;52.700;7.306;2022-08-30T09:36:15;20.70;96.70
11188;DHT22;5650;52.700;7.306;2022-08-30T09:38:45;20.70;96.70
11188;DHT22;5650;52.700;7.306;2022-08-30T09:41:35;20.70;96.90
11188;DHT22;5650;52.700;7.306;2022-08-30T09:44:07;20.60;97.20
11188;DHT22;5650;52.700;7.306;2022-08-30T09:46:43;20.60;97.40
11188;DHT22;5650;52.700;7.306;2022-08-30T09:49:31;20.80;97.20
11188;DHT22;5650;52.700;7.306;2022-08-30T09:52:23;20.90;96.80
11188;DHT22;5650;52.700;7.306;2022-08-30T09:55:18;21.10;97.10
11188;DHT22;5650;52.700;7.306;2022-08-30T09:57:52;21.20;96.30
11188;DHT22;5650;52.700;7.306;2022-08-30T10:00:24;21.20;96.30
11188;DHT22;5650;52.700;7.306;2022-08-30T10:03:06;21.20;96.60
11188;DHT22;5650;52.700;7.306;2022-08-30T10:05:51;21.30;96.60
11188;DHT22;5650;52.700;7.306;2022-08-30T10:08:24;21.30;95.90
11188;DHT22;5650;52.700;7.306;2022-08-30T10:10:57;21.20;96.10
11188;DHT22;5650;52.700;7.306;2022-08-30T10:13:55;21.30;96.40
11188;DHT22;5650;52.700;7.306;2022-08-30T10:16:34;21.50;96.60
11188;DHT22;5650;52.700;7.306;2022-08-30T10:19:22;21.50;95.80
11188;DHT22;5650;52.700;7.306;2022-08-30T10:22:01;21.50;95.90
11188;DHT22;5650;52.700;7.306;2022-08-30T10:24:33;21.50;95.90
11188;DHT22;5650;52.700;7.306;2022-08-30T10:27:06;21.60;96.00
11188;DHT22;5650;52.700;7.306;2022-08-30T10:29:39;21.70;95.80
11188;DHT22;5650;52.700;7.306;2022-08-30T10:32:18;21.70;95.40
11188;DHT22;5650;52.700;7.306;2022-08-30T10:34:51;21.90;94.80
11188;DHT22;5650;52.700;7.306;2022-08-30T10:37:24;21.90;94.70
11188;DHT22;5650;52.700;7.306;2022-08-30T10:39:53;21.90;94.90
11188;DHT22;5650;52.700;7.306;2022-08-30T10:42:25;21.90;95.00
11188;DHT22;5650;52.700;7.306;2022-08-30T10:44:57;21.90;94.90
11188;DHT22;5650;52.700;7.306;2022-08-30T10:47:31;22.00;95.00
11188;DHT22;5650;52.700;7.306;2022-08-30T10:50:09;22.10;94.10
11188;DHT22;5650;52.700;7.306;2022-08-30T10:52:41;22.10;94.40
11188;DHT22;5650;52.700;7.306;2022-08-30T10:55:15;22.20;94.20
11188;DHT22;5650;52.700;7.306;2022-08-30T10:57:49;22.20;93.80
11188;DHT22;5650;52.700;7.306;2022-08-30T11:00:23;22.30;94.20
11188;DHT22;5650;52.700;7.306;2022-08-30T11:03:38;22.30;93.70
11188;DHT22;5650;52.700;7.306;2022-08-30T11:06:18;22.30;93.80
11188;DHT22;5650;52.700;7.306;2022-08-30T11:09:12;22.40;94.20
11188;DHT22;5650;52.700;7.306;2022-08-30T11:12:00;22.50;94.20
11188;DHT22;5650;52.700;7.306;2022-08-30T11:14:38;22.40;93.80
11188;DHT22;5650;52.700;7.306;2022-08-30T11:17:05;22.40;94.00
11188;DHT22;5650;52.700;7.306;2022-08-30T11:19:44;22.40;94.00
11188;DHT22;5650;52.700;7.306;2022-08-30T11:22:23;22.50;93.80
11188;DHT22;5650;52.700;7.306;2022-08-30T11:25:47;22.60;93.90
11188;DHT22;5650;52.700;7.306;2022-08-30T11:28:12;22.70;93.70
11188;DHT22;5650;52.700;7.306;2022-08-30T11:31:08;22.60;93.40
11188;DHT22;5650;52.700;7.306;2022-08-30T11:33:48;22.40;93.60
11188;DHT22;5650;52.700;7.306;2022-08-30T11:39:52;22.20;93.70
11188;DHT22;5650;52.700;7.306;2022-08-30T11:42:36;22.10;93.70
11188;DHT22;5650;52.700;7.306;2022-08-30T11:48:42;22.10;94.40
11188;DHT22;5650;52.700;7.306;2022-08-30T11:51:31;22.10;93.70
11188;DHT22;5650;52.700;7.306;2022-08-30T11:54:11;22.20;93.80
11188;DHT22;5650;52.700;7.306;2022-08-30T11:56:51;22.20;94.00
11188;DHT22;5650;52.700;7.306;2022-08-30T11:59:26;22.20;94.10
11188;DHT22;5650;52.700;7.306;2022-08-30T12:01:55;22.20;94.10
11188;DHT22;5650;52.700;7.306;2022-08-30T12:04:35;22.10;94.30
11188;DHT22;5650;52.700;7.306;2022-08-30T12:07:07;22.10;94.20
11188;DHT22;5650;52.700;7.306;2022-08-30T12:10:05;22.00;94.20
11188;DHT22;5650;52.700;7.306;2022-08-30T12:12:52;22.00;94.30
11188;DHT22;5650;52.700;7.306;2022-08-30T12:15:51;22.00;93.50
11188;DHT22;5650;52.700;7.306;2022-08-30T12:18:32;22.20;93.70
11188;DHT22;5650;52.700;7.306;2022-08-30T12:21:26;22.50;93.50
11188;DHT22;5650;52.700;7.306;2022-08-30T12:23:59;22.90;93.20
11188;DHT22;5650;52.700;7.306;2022-08-30T12:26:31;23.10;92.70
11188;DHT22;5650;52.700;7.306;2022-08-30T12:29:14;23.30;92.70
11188;DHT22;5650;52.700;7.306;2022-08-30T12:31:44;23.50;92.70
11188;DHT22;5650;52.700;7.306;2022-08-30T12:34:22;23.50;92.40
11188;DHT22;5650;52.700;7.306;2022-08-30T12:36:55;23.50;92.40
11188;DHT22;5650;52.700;7.306;2022-08-30T12:39:26;23.30;92.10
11188;DHT22;5650;52.700;7.306;2022-08-30T12:41:54;23.20;92.40
11188;DHT22;5650;52.700;7.306;2022-08-30T12:44:24;23.10;92.10
11188;DHT22;5650;52.700;7.306;2022-08-30T12:46:55;23.10;91.80
11188;DHT22;5650;52.700;7.306;2022-08-30T12:49:27;23.20;91.30
11188;DHT22;5650;52.700;7.306;2022-08-30T12:52:14;23.20;91.30
11188;DHT22;5650;52.700;7.306;2022-08-30T12:54:45;23.10;91.00
11188;DHT22;5650;52.700;7.306;2022-08-30T12:57:34;23.20;91.10
11188;DHT22;5650;52.700;7.306;2022-08-30T12:59:59;23.30;91.30
11188;DHT22;5650;52.700;7.306;2022-08-30T13:02:27;23.40;91.00
11188;DHT22;5650;52.700;7.306;2022-08-30T13:05:42;23.40;90.50
11188;DHT22;5650;52.700;7.306;2022-08-30T13:08:15;23.50;90.80
11188;DHT22;5650;52.700;7.306;2022-08-30T13:10:54;23.50;90.40
11188;DHT22;5650;52.700;7.306;2022-08-30T13:13:30;23.40;90.00
11188;DHT22;5650;52.700;7.306;2022-08-30T13:16:10;23.30;90.00
11188;DHT22;5650;52.700;7.306;2022-08-30T13:18:38;23.10;90.30
11188;DHT22;5650;52.700;7.306;2022-08-30T13:21:21;23.10;90.60
11188;DHT22;5650;52.700;7.306;2022-08-30T13:23:50;23.20;90.80
11188;DHT22;5650;52.700;7.306;2022-08-30T13:26:18;23.20;91.10
11188;DHT22;5650;52.700;7.306;2022-08-30T13:28:48;23.30;91.00
11188;DHT22;5650;52.700;7.306;2022-08-30T13:31:23;23.30;91.00
11188;DHT22;5650;52.700;7.306;2022-08-30T13:33:50;23.20;90.90
11188;DHT22;5650;52.700;7.306;2022-08-30T13:36:19;23.20;91.20
11188;DHT22;5650;52.700;7.306;2022-08-30T13:38:51;23.30;91.20
11188;DHT22;5650;52.700;7.306;2022-08-30T13:41:18;23.30;91.00
11188;DHT22;5650;52.700;7.306;2022-08-30T13:43:55;23.40;91.30
11188;DHT22;5650;52.700;7.306;2022-08-30T13:46:23;23.50;91.00
11188;DHT22;5650;52.700;7.306;2022-08-30T13:48:51;23.60;91.00
11188;DHT22;5650;52.700;7.306;2022-08-30T13:51:23;23.90;91.00
11188;DHT22;5650;52.700;7.306;2022-08-30T13:53:52;24.00;90.50
11188;DHT22;5650;52.700;7.306;2022-08-30T13:56:19;24.00;89.80
11188;DHT22;5650;52.700;7.306;2022-08-30T13:58:56;23.90;90.10
11188;DHT22;5650;52.700;7.306;2022-08-30T14:01:26;23.70;90.40
11188;DHT22;5650;52.700;7.306;2022-08-30T14:03:54;23.60;90.80
11188;DHT22;5650;52.700;7.306;2022-08-30T14:06:21;23.60;91.00
11188;DHT22;5650;52.700;7.306;2022-08-30T14:08:48;23.60;90.90
11188;DHT22;5650;52.700;7.306;2022-08-30T14:11:19;23.60;91.00
11188;DHT22;5650;52.700;7.306;2022-08-30T14:13:47;23.60;90.50
11188;DHT22;5650;52.700;7.306;2022-08-30T14:16:15;23.60;90.40
11188;DHT22;5650;52.700;7.306;2022-08-30T14:18:42;23.60;90.30
11188;DHT22;5650;52.700;7.306;2022-08-30T14:21:09;23.70;90.00
11188;DHT22;5650;52.700;7.306;2022-08-30T14:23:39;23.70;89.20
11188;DHT22;5650;52.700;7.306;2022-08-30T14:26:10;23.70;89.10
11188;DHT22;5650;52.700;7.306;2022-08-30T14:28:40;23.60;88.30
11188;DHT22;5650;52.700;7.306;2022-08-30T14:31:09;23.50;89.00
11188;DHT22;5650;52.700;7.306;2022-08-30T14:33:37;23.50;89.10
11188;DHT22;5650;52.700;7.306;2022-08-30T14:36:04;23.50;89.70
11188;DHT22;5650;52.700;7.306;2022-08-30T14:38:31;23.60;90.00
11188;DHT22;5650;52.700;7.306;2022-08-30T14:40:59;23.70;90.40
11188;DHT22;5650;52.700;7.306;2022-08-30T14:43:26;23.80;90.40
11188;DHT22;5650;52.700;7.306;2022-08-30T14:45:56;23.70;89.90
11188;DHT22;5650;52.700;7.306;2022-08-30T14:48:24;23.60;90.10
11188;DHT22;5650;52.700;7.306;2022-08-30T14:50:51;23.50;90.70
11188;DHT22;5650;52.700;7.306;2022-08-30T14:53:18;23.40;91.20
11188;DHT22;5650;52.700;7.306;2022-08-30T14:55:45;23.30;91.60
11188;DHT22;5650;52.700;7.306;2022-08-30T14:58:12;23.20;91.90
11188;DHT22;5650;52.700;7.306;2022-08-30T15:00:43;23.20;92.30
11188;DHT22;5650;52.700;7.306;2022-08-30T15:03:16;23.20;91.90
11188;DHT22;5650;52.700;7.306;2022-08-30T15:05:47;23.40;91.70
11188;DHT22;5650;52.700;7.306;2022-08-30T15:08:15;23.40;91.00
11188;DHT22;5650;52.700;7.306;2022-08-30T15:10:43;23.50;90.80
11188;DHT22;5650;52.700;7.306;2022-08-30T15:13:10;23.50;90.90
11188;DHT22;5650;52.700;7.306;2022-08-30T15:15:37;23.50;91.10
11188;DHT22;5650;52.700;7.306;2022-08-30T15:18:04;23.60;91.30
11188;DHT22;5650;52.700;7.306;2022-08-30T15:20:33;23.60;91.10
11188;DHT22;5650;52.700;7.306;2022-08-30T15:23:00;23.60;90.80
11188;DHT22;5650;52.700;7.306;2022-08-30T15:25:27;23.60;90.20
11188;DHT22;5650;52.700;7.306;2022-08-30T15:27:54;23.50;90.20
11188;DHT22;5650;52.700;7.306;2022-08-30T15:30:21;23.50;90.70
11188;DHT22;5650;52.700;7.306;2022-08-30T15:32:48;23.40;91.00
11188;DHT22;5650;52.700;7.306;2022-08-30T15:35:15;23.40;91.30
11188;DHT22;5650;52.700;7.306;2022-08-30T15:37:44;23.30;91.40
11188;DHT22;5650;52.700;7.306;2022-08-30T15:40:11;23.30;91.60
11188;DHT22;5650;52.700;7.306;2022-08-30T15:42:38;23.30;91.80
11188;DHT22;5650;52.700;7.306;2022-08-30T15:45:07;23.30;92.10
11188;DHT22;5650;52.700;7.306;2022-08-30T15:47:36;23.30;92.30
11188;DHT22;5650;52.700;7.306;2022-08-30T15:50:05;23.30;92.50
11188;DHT22;5650;52.700;7.306;2022-08-30T15:52:33;23.30;92.60
11188;DHT22;5650;52.700;7.306;2022-08-30T15:55:08;23.30;92.60
11188;DHT22;5650;52.700;7.306;2022-08-30T15:57:35;23.30;92.60
11188;DHT22;5650;52.700;7.306;2022-08-30T16:00:07;23.20;92.70
11188;DHT22;5650;52.700;7.306;2022-08-30T16:02:40;23.20;92.80
11188;DHT22;5650;52.700;7.306;2022-08-30T16:05:09;23.10;92.80
11188;DHT22;5650;52.700;7.306;2022-08-30T16:07:39;23.10;92.60
11188;DHT22;5650;52.700;7.306;2022-08-30T16:10:10;23.10;92.80
11188;DHT22;5650;52.700;7.306;2022-08-30T16:12:38;23.00;92.60
11188;DHT22;5650;52.700;7.306;2022-08-30T16:15:05;23.00;92.50
11188;DHT22;5650;52.700;7.306;2022-08-30T16:17:33;23.00;92.50
11188;DHT22;5650;52.700;7.306;2022-08-30T16:20:05;23.00;92.20